Time;durP1;ratioP1;P1;durP2;ratioP2;P2;SDS_P1;SDS_P2;PMS_P1;PMS_P2;Temp;Humidity;BMP_temperature;BMP_pressure;BME280_temperature;BME280_humidity;BME280_pressure;Samples;Min_cycle;Max_cycle;Signal;HPM_P1;HPM_P2
2021/08/26 00:07:35;;;;;;;4.78;3.67;;;17.40;85.90;;;;;;5111759;28;20043;-75
2021/08/26 00:10:06;;;;;;;5.07;3.35;;;17.40;86.00;;;;;;5109914;28;20027;-77
2021/08/26 00:12:33;;;;;;;4.43;3.53;;;17.40;86.00;;;;;;5110423;28;20549;-76
2021/08/26 00:15:02;;;;;;;6.40;3.85;;;17.40;86.10;;;;;;5109378;28;20048;-76
2021/08/26 00:17:28;;;;;;;6.25;4.05;;;17.40;86.30;;;;;;5111327;28;20169;-77
2021/08/26 00:19:53;;;;;;;3.92;3.30;;;17.40;86.70;;;;;;5093227;28;20551;-80
2021/08/26 00:22:20;;;;;;;3.47;3.13;;;17.30;86.90;;;;;;5076303;28;20177;-75
2021/08/26 00:24:46;;;;;;;6.30;3.28;;;17.30;87.00;;;;;;5109711;28;20100;-76
2021/08/26 00:27:12;;;;;;;6.05;3.30;;;17.40;87.20;;;;;;5109143;28;20085;-75
2021/08/26 00:29:38;;;;;;;4.75;3.63;;;17.30;87.40;;;;;;5109810;28;20031;-77
2021/08/26 00:32:05;;;;;;;5.28;2.90;;;17.40;87.70;;;;;;5092410;28;20032;-77
2021/08/26 00:34:30;;;;;;;4.55;3.72;;;17.30;87.90;;;;;;5110335;28;20028;-77
2021/08/26 00:36:56;;;;;;;4.43;3.42;;;17.30;88.10;;;;;;5091734;28;20176;-79
2021/08/26 00:39:22;;;;;;;6.78;3.63;;;17.30;88.20;;;;;;5096281;28;20830;-76
2021/08/26 00:41:47;;;;;;;5.43;3.17;;;17.30;88.50;;;;;;5113825;28;20027;-75
2021/08/26 00:44:13;;;;;;;5.30;3.75;;;17.30;88.60;;;;;;5114299;28;20127;-78
2021/08/26 00:46:40;;;;;;;3.65;2.92;;;17.30;88.80;;;;;;5113208;28;20399;-76
2021/08/26 00:49:12;;;;;;;4.70;3.70;;;17.30;88.90;;;;;;5113202;28;20479;-75
2021/08/26 00:51:37;;;;;;;6.63;3.90;;;17.20;89.10;;;;;;5114002;28;20023;-77
2021/08/26 00:54:04;;;;;;;4.13;3.40;;;17.20;89.10;;;;;;5113056;28;20024;-77
2021/08/26 00:56:30;;;;;;;4.55;3.40;;;17.20;89.20;;;;;;5112236;28;20042;-76
2021/08/26 00:58:58;;;;;;;4.90;3.70;;;17.20;89.30;;;;;;5113092;28;20028;-78
2021/08/26 01:01:36;;;;;;;6.03;3.40;;;17.20;89.60;;;;;;5114320;28;20038;-76
2021/08/26 01:04:23;;;;;;;4.28;3.20;;;17.10;89.80;;;;;;5113221;28;20032;-78
2021/08/26 01:07:09;;;;;;;3.83;3.25;;;17.20;90.00;;;;;;5114967;28;20020;-76
2021/08/26 01:09:43;;;;;;;3.78;3.00;;;17.10;90.00;;;;;;5113932;28;20141;-76
2021/08/26 01:12:19;;;;;;;2.47;2.28;;;17.20;90.10;;;;;;5113978;28;20020;-77
2021/08/26 01:14:49;;;;;;;3.45;2.63;;;17.20;90.10;;;;;;5113292;28;20173;-76
2021/08/26 01:17:25;;;;;;;4.50;2.92;;;17.10;90.20;;;;;;5111042;28;20027;-77
2021/08/26 01:19:52;;;;;;;3.33;2.20;;;17.10;90.20;;;;;;5114213;28;20031;-76
2021/08/26 01:22:19;;;;;;;4.20;3.00;;;17.10;90.30;;;;;;5114848;28;20179;-77
2021/08/26 01:24:52;;;;;;;3.97;2.80;;;17.10;90.40;;;;;;5115008;28;20039;-74
2021/08/26 01:27:18;;;;;;;;;;;17.10;90.40;;;;;;5092942;28;20123;-77
2021/08/26 01:29:46;;;;;;;6.47;2.95;;;17.10;90.30;;;;;;5093146;28;19908;-76
2021/08/26 01:32:14;;;;;;;4.13;2.92;;;17.10;90.30;;;;;;5076073;28;20032;-77
2021/08/26 01:34:40;;;;;;;3.40;3.08;;;17.10;90.30;;;;;;5076832;28;20032;-77
2021/08/26 01:37:07;;;;;;;4.38;3.13;;;17.00;90.40;;;;;;5092405;28;20468;-77
2021/08/26 01:39:43;;;;;;;5.03;3.22;;;17.00;90.50;;;;;;5093454;28;20028;-77
2021/08/26 01:42:08;;;;;;;3.05;2.50;;;17.00;90.50;;;;;;5092803;28;20024;-77
2021/08/26 01:44:34;;;;;;;3.85;2.45;;;17.10;90.50;;;;;;5092604;28;20028;-76
2021/08/26 01:47:10;;;;;;;5.20;2.97;;;17.10;90.50;;;;;;5112864;28;20373;-76
2021/08/26 01:49:37;;;;;;;4.07;2.85;;;17.10;90.50;;;;;;5111892;28;20067;-77
2021/08/26 01:52:03;;;;;;;4.20;3.40;;;17.10;90.50;;;;;;5112962;28;20023;-81
2021/08/26 01:54:29;;;;;;;3.55;3.05;;;17.10;90.50;;;;;;5095344;28;20028;-77
2021/08/26 01:56:55;;;;;;;5.93;3.28;;;17.10;90.50;;;;;;5096140;28;20425;-77
2021/08/26 01:59:21;;;;;;;4.38;2.95;;;17.10;90.50;;;;;;5112620;28;20123;-78
2021/08/26 02:01:47;;;;;;;3.42;3.13;;;17.00;90.70;;;;;;5114056;28;20114;-76
2021/08/26 02:04:12;;;;;;;3.75;3.10;;;17.10;90.50;;;;;;5112450;28;20031;-77
2021/08/26 02:06:38;;;;;;;4.28;3.15;;;17.00;90.50;;;;;;5112930;28;20028;-76
2021/08/26 02:09:03;;;;;;;4.97;3.10;;;17.00;90.50;;;;;;5114198;28;20030;-77
2021/08/26 02:11:29;;;;;;;4.18;3.30;;;17.00;90.70;;;;;;5112726;28;20027;-76
2021/08/26 02:13:55;;;;;;;4.93;3.60;;;17.10;90.50;;;;;;5112375;28;20377;-77
2021/08/26 02:16:20;;;;;;;5.28;3.97;;;17.10;90.40;;;;;;5107516;28;20035;-77
2021/08/26 02:18:46;;;;;;;5.78;3.65;;;17.10;90.50;;;;;;5095502;28;20130;-77
2021/08/26 02:21:12;;;;;;;5.20;3.67;;;17.00;90.50;;;;;;5112391;28;20046;-77
2021/08/26 02:23:38;;;;;;;3.97;3.58;;;17.00;90.50;;;;;;5112832;28;20106;-76
2021/08/26 02:26:04;;;;;;;5.70;4.63;;;17.10;90.50;;;;;;5113894;28;20111;-77
2021/08/26 02:28:30;;;;;;;5.78;4.10;;;17.00;90.50;;;;;;5112306;28;20034;-77
2021/08/26 02:30:55;;;;;;;5.60;4.75;;;17.00;90.50;;;;;;5114180;28;20102;-76
2021/08/26 02:33:21;;;;;;;7.57;5.88;;;17.00;90.50;;;;;;5112411;28;20126;-77
2021/08/26 02:35:47;;;;;;;7.68;6.38;;;17.00;90.50;;;;;;5112502;28;20058;-77
2021/08/26 02:38:12;;;;;;;8.68;6.55;;;17.00;90.50;;;;;;5095029;28;20455;-78
2021/08/26 02:40:38;;;;;;;6.10;5.60;;;16.90;90.50;;;;;;5112179;28;20062;-76
2021/08/26 02:43:03;;;;;;;8.95;6.15;;;16.80;90.50;;;;;;5112347;28;20051;-77
2021/08/26 02:45:30;;;;;;;9.80;7.38;;;16.80;90.60;;;;;;5112692;28;20035;-76
2021/08/26 02:47:55;;;;;;;8.15;6.28;;;16.80;90.60;;;;;;5112049;28;20047;-77
2021/08/26 02:50:21;;;;;;;8.00;5.53;;;16.70;90.60;;;;;;5076074;28;20032;-77
2021/08/26 02:52:47;;;;;;;5.93;5.32;;;16.80;90.60;;;;;;5096362;28;20023;-78
2021/08/26 02:55:12;;;;;;;5.47;4.82;;;16.70;90.60;;;;;;5112743;28;20463;-82
2021/08/26 02:57:38;;;;;;;7.00;4.03;;;16.70;90.50;;;;;;5111957;28;20084;-77
2021/08/26 03:00:05;;;;;;;6.40;5.10;;;16.70;90.50;;;;;;5111788;28;20122;-78
2021/08/26 03:02:31;;;;;;;4.88;4.30;;;16.70;90.50;;;;;;5094460;28;20035;-76
2021/08/26 03:04:57;;;;;;;6.10;4.47;;;16.70;90.50;;;;;;5095232;28;20039;-76
2021/08/26 03:07:22;;;;;;;7.10;5.10;;;16.70;90.50;;;;;;5093871;28;20039;-77
2021/08/26 03:09:48;;;;;;;6.90;5.72;;;16.70;90.60;;;;;;5111317;28;20471;-77
2021/08/26 03:12:14;;;;;;;6.05;4.47;;;16.70;90.50;;;;;;5091833;28;20039;-80
2021/08/26 03:14:39;;;;;;;7.25;4.85;;;16.70;90.50;;;;;;5091807;28;20056;-76
2021/08/26 03:17:05;;;;;;;9.00;5.60;;;16.70;90.50;;;;;;5094907;28;20495;-77
2021/08/26 03:19:31;;;;;;;7.63;4.90;;;16.70;90.40;;;;;;5111350;28;20027;-76
2021/08/26 03:21:56;;;;;;;7.10;3.80;;;16.70;90.40;;;;;;5112218;28;20059;-77
2021/08/26 03:24:22;;;;;;;6.07;3.42;;;16.70;90.40;;;;;;5093677;28;20085;-76
2021/08/26 03:26:47;;;;;;;6.03;3.30;;;16.70;90.20;;;;;;5111501;28;20391;-77
2021/08/26 03:29:13;;;;;;;6.60;4.72;;;16.70;90.20;;;;;;5128452;27;20024;-77
2021/08/26 03:31:39;;;;;;;8.80;5.68;;;16.70;90.20;;;;;;5111236;28;20028;-76
2021/08/26 03:34:04;;;;;;;7.47;5.00;;;16.70;90.10;;;;;;5112222;28;20036;-77
2021/08/26 03:36:30;;;;;;;6.80;4.88;;;16.70;90.10;;;;;;5093426;28;20081;-77
2021/08/26 03:38:56;;;;;;;6.95;3.67;;;16.70;89.80;;;;;;5128002;27;20038;-78
2021/08/26 03:41:22;;;;;;;7.82;3.05;;;16.60;89.60;;;;;;5110312;28;20040;-78
2021/08/26 03:43:49;;;;;;;9.73;3.72;;;16.60;89.40;;;;;;5111464;28;20109;-75
2021/08/26 03:46:15;;;;;;;5.93;3.38;;;16.60;89.30;;;;;;5084566;28;20040;-77
2021/08/26 03:48:41;;;;;;;9.02;2.75;;;16.60;89.10;;;;;;5092518;28;20116;-76
2021/08/26 03:51:06;;;;;;;6.90;2.50;;;16.50;88.90;;;;;;5091865;28;20032;-74
2021/08/26 03:53:32;;;;;;;7.28;2.67;;;16.50;88.80;;;;;;5089341;28;20046;-76
2021/08/26 03:55:58;;;;;;;7.22;2.88;;;16.50;88.60;;;;;;5088056;28;20057;-76
2021/08/26 03:58:24;;;;;;;7.85;4.68;;;16.50;88.60;;;;;;5086293;28;20085;-76
2021/08/26 04:00:50;;;;;;;10.77;4.70;;;16.50;88.50;;;;;;5111370;28;20027;-75
2021/08/26 04:03:15;;;;;;;10.68;5.22;;;16.50;88.40;;;;;;5110614;28;20383;-77
2021/08/26 04:05:41;;;;;;;9.52;4.47;;;16.50;88.30;;;;;;5092064;28;20031;-76
2021/08/26 04:08:06;;;;;;;8.40;5.00;;;16.50;88.00;;;;;;5110266;28;20031;-76
2021/08/26 04:10:32;;;;;;;6.85;4.30;;;16.50;87.90;;;;;;5110790;28;20063;-77
2021/08/26 04:12:58;;;;;;;10.77;4.05;;;16.50;87.70;;;;;;5116358;28;20023;-77
2021/08/26 04:15:24;;;;;;;7.97;3.25;;;16.40;87.40;;;;;;5132844;27;21095;-81
2021/08/26 04:17:49;;;;;;;11.43;3.63;;;16.40;87.30;;;;;;5116754;28;20030;-77
2021/08/26 04:20:15;;;;;;;11.00;2.22;;;16.40;86.90;;;;;;5117106;28;20067;-76
2021/08/26 04:22:41;;;;;;;11.88;2.38;;;16.40;85.90;;;;;;5116106;28;20034;-76
2021/08/26 04:25:07;;;;;;;8.65;2.70;;;16.40;85.40;;;;;;5096722;28;20036;-77
2021/08/26 04:27:33;;;;;;;10.88;2.30;;;16.30;84.80;;;;;;5116485;28;20024;-76
2021/08/26 04:29:59;;;;;;;10.70;2.47;;;16.30;84.80;;;;;;5099982;28;20372;-75
2021/08/26 04:32:24;;;;;;;8.18;2.20;;;16.30;84.60;;;;;;5116937;28;20034;-79
2021/08/26 04:34:50;;;;;;;10.02;2.13;;;16.20;84.50;;;;;;5116389;28;20031;-75
2021/08/26 04:37:16;;;;;;;13.00;2.67;;;16.20;84.50;;;;;;5116688;28;20582;-76
2021/08/26 04:39:41;;;;;;;10.73;2.75;;;16.10;84.20;;;;;;5117054;28;20039;-75
2021/08/26 04:42:07;;;;;;;10.23;2.90;;;16.10;84.20;;;;;;5117141;28;20370;-77
2021/08/26 04:44:33;;;;;;;15.30;3.47;;;16.10;84.20;;;;;;5115608;28;20043;-76
2021/08/26 04:46:58;;;;;;;8.07;3.30;;;16.10;84.30;;;;;;5102704;27;20162;-77
2021/08/26 04:49:24;;;;;;;14.68;5.32;;;16.10;84.30;;;;;;5105102;28;20031;-76
2021/08/26 04:51:50;;;;;;;9.10;3.30;;;16.20;84.30;;;;;;5133331;27;20039;-77
2021/08/26 04:54:15;;;;;;;6.32;2.33;;;16.20;84.30;;;;;;5117852;28;20471;-76
2021/08/26 04:56:41;;;;;;;8.40;2.75;;;16.20;84.20;;;;;;5117121;27;20375;-76
2021/08/26 04:59:06;;;;;;;9.35;2.47;;;16.20;84.10;;;;;;5117566;28;20016;-78
2021/08/26 05:01:32;;;;;;;6.18;1.98;;;16.20;84.10;;;;;;5082180;28;20472;-80
2021/08/26 05:03:58;;;;;;;10.20;3.03;;;16.20;83.90;;;;;;5099724;28;20027;-75
2021/08/26 05:06:23;;;;;;;15.15;4.78;;;16.20;83.90;;;;;;5117037;28;20032;-76
2021/08/26 05:08:49;;;;;;;11.20;5.60;;;16.20;83.90;;;;;;5117716;28;20558;-77
2021/08/26 05:11:19;;;;;;;14.88;6.70;;;16.20;83.90;;;;;;5118714;28;20463;-76
2021/08/26 05:13:45;;;;;;;17.92;7.03;;;16.20;83.80;;;;;;5116742;27;20440;-77
2021/08/26 05:16:11;;;;;;;11.63;4.63;;;16.30;83.80;;;;;;5110439;28;20036;-76
2021/08/26 05:18:36;;;;;;;13.77;3.42;;;16.30;83.70;;;;;;5097364;28;20375;-76
2021/08/26 05:21:02;;;;;;;13.10;2.83;;;16.30;83.50;;;;;;5118403;28;20429;-75
2021/08/26 05:23:29;;;;;;;9.55;2.50;;;16.30;83.50;;;;;;5123309;27;20052;-77
2021/08/26 05:25:55;;;;;;;11.10;2.50;;;16.30;83.50;;;;;;5117603;28;20020;-76
2021/08/26 05:28:20;;;;;;;8.13;2.45;;;16.30;83.50;;;;;;5102102;28;20126;-75
2021/08/26 05:30:46;;;;;;;9.23;3.08;;;16.40;83.50;;;;;;5118080;28;20041;-76
2021/08/26 05:33:12;;;;;;;14.38;3.60;;;16.40;83.40;;;;;;5117593;28;20042;-76
2021/08/26 05:35:38;;;;;;;11.50;3.28;;;16.40;83.40;;;;;;5095145;28;20383;-76
2021/08/26 05:38:03;;;;;;;8.45;2.90;;;16.40;83.20;;;;;;5115050;28;20464;-76
2021/08/26 05:40:29;;;;;;;13.88;3.03;;;16.50;83.10;;;;;;5113497;28;20466;-75
2021/08/26 05:42:55;;;;;;;10.70;3.38;;;16.50;82.90;;;;;;5114271;28;20020;-77
2021/08/26 05:45:21;;;;;;;12.60;3.75;;;16.50;82.60;;;;;;5114535;28;20043;-76
2021/08/26 05:47:48;;;;;;;11.07;4.35;;;16.50;82.30;;;;;;5112217;28;20042;-77
2021/08/26 05:50:13;;;;;;;16.05;5.40;;;16.50;82.00;;;;;;5113020;28;20032;-76
2021/08/26 05:52:39;;;;;;;10.55;4.50;;;16.50;81.80;;;;;;5113216;28;20092;-79
2021/08/26 05:55:05;;;;;;;16.77;4.90;;;16.50;81.80;;;;;;5114447;28;20093;-76
2021/08/26 05:57:31;;;;;;;15.45;5.05;;;16.50;81.50;;;;;;5111952;28;20077;-76
2021/08/26 05:59:56;;;;;;;18.50;5.25;;;16.50;81.20;;;;;;5112306;28;20035;-76
2021/08/26 06:02:22;;;;;;;12.00;4.05;;;16.50;80.90;;;;;;5114315;28;20031;-76
2021/08/26 06:04:48;;;;;;;20.98;5.45;;;16.50;81.00;;;;;;5091667;28;20028;-77
2021/08/26 06:07:13;;;;;;;15.13;5.03;;;16.60;80.90;;;;;;5102970;28;20059;-76
2021/08/26 06:09:40;;;;;;;16.67;5.65;;;16.60;80.70;;;;;;5130010;27;20019;-79
2021/08/26 06:12:05;;;;;;;14.38;5.28;;;16.70;80.50;;;;;;5114480;27;20568;-76
2021/08/26 06:14:31;;;;;;;16.38;4.35;;;16.70;80.50;;;;;;5113284;28;20149;-76
2021/08/26 06:16:57;;;;;;;13.00;4.38;;;16.80;80.40;;;;;;5116118;28;20047;-75
2021/08/26 06:19:22;;;;;;;11.98;4.53;;;16.90;80.10;;;;;;5120341;28;20046;-77
2021/08/26 06:21:48;;;;;;;16.30;4.00;;;16.90;79.60;;;;;;5124200;28;20024;-76
2021/08/26 06:24:15;;;;;;;11.95;3.38;;;16.90;79.30;;;;;;5102217;28;20479;-76
2021/08/26 06:26:41;;;;;;;12.25;5.03;;;16.90;79.00;;;;;;5119302;28;20487;-80
2021/08/26 06:29:07;;;;;;;14.18;5.22;;;17.00;78.90;;;;;;5122680;28;20054;-77
2021/08/26 06:31:34;;;;;;;14.10;6.18;;;17.10;78.80;;;;;;5117863;28;20444;-74
2021/08/26 06:33:59;;;;;;;20.63;6.03;;;17.10;78.60;;;;;;5098341;28;20130;-77
2021/08/26 06:36:25;;;;;;;15.05;5.90;;;17.20;78.30;;;;;;5093485;28;20134;-77
2021/08/26 06:38:51;;;;;;;11.38;4.03;;;17.30;78.20;;;;;;5096028;28;20388;-78
2021/08/26 06:41:16;;;;;;;14.07;4.40;;;17.40;78.00;;;;;;5113524;28;20019;-77
2021/08/26 06:43:43;;;;;;;13.55;4.05;;;17.50;77.60;;;;;;5113015;28;20035;-76
2021/08/26 06:46:09;;;;;;;14.50;4.78;;;17.60;77.50;;;;;;5094963;28;20024;-77
2021/08/26 06:48:35;;;;;;;11.82;4.05;;;17.60;77.10;;;;;;5112689;28;20050;-76
2021/08/26 06:51:01;;;;;;;12.40;3.47;;;17.60;77.10;;;;;;5095134;28;20034;-76
2021/08/26 06:53:27;;;;;;;12.45;3.50;;;17.70;76.80;;;;;;5112974;28;20027;-76
2021/08/26 06:55:52;;;;;;;14.73;4.72;;;17.70;76.70;;;;;;5099025;28;20028;-77
2021/08/26 06:58:18;;;;;;;12.75;4.15;;;17.70;76.90;;;;;;5087450;28;20380;-77
2021/08/26 07:00:44;;;;;;;9.60;3.53;;;17.70;76.90;;;;;;5091806;28;20020;-78
2021/08/26 07:03:09;;;;;;;10.57;3.00;;;17.70;76.80;;;;;;5093758;28;20020;-76
2021/08/26 07:05:37;;;;;;;10.20;3.72;;;17.70;76.60;;;;;;5100813;28;20064;-77
2021/08/26 07:08:03;;;;;;;12.63;4.15;;;17.70;76.50;;;;;;5097672;28;20035;-76
2021/08/26 07:10:29;;;;;;;13.32;3.22;;;17.70;76.40;;;;;;5077126;28;20031;-79
2021/08/26 07:12:54;;;;;;;11.10;3.15;;;17.70;76.20;;;;;;5110266;28;20106;-76
2021/08/26 07:15:25;;;;;;;12.07;4.25;;;17.70;76.30;;;;;;5107705;28;20067;-77
2021/08/26 07:17:51;;;;;;;13.82;4.07;;;17.80;76.20;;;;;;5091540;28;20023;-79
2021/08/26 07:20:18;;;;;;;10.82;2.78;;;17.80;76.00;;;;;;5092867;28;20028;-77
2021/08/26 07:22:44;;;;;;;8.80;3.00;;;17.80;75.80;;;;;;5092254;28;20032;-77
2021/08/26 07:25:10;;;;;;;8.57;1.80;;;17.70;75.50;;;;;;5096611;28;20047;-77
2021/08/26 07:27:36;;;;;;;12.50;1.98;;;17.70;75.30;;;;;;5111404;28;20028;-77
2021/08/26 07:30:03;;;;;;;10.55;2.40;;;17.70;75.30;;;;;;5110598;28;20091;-76
2021/08/26 07:32:28;;;;;;;10.35;2.05;;;17.80;75.70;;;;;;5095418;28;20034;-76
2021/08/26 07:34:54;;;;;;;12.73;2.28;;;17.90;74.80;;;;;;5126992;27;22201;-77
2021/08/26 07:37:20;;;;;;;13.10;2.78;;;18.10;74.70;;;;;;5112521;28;20024;-77
2021/08/26 07:39:45;;;;;;;13.55;4.53;;;18.50;74.50;;;;;;5127956;27;20085;-77
2021/08/26 07:42:11;;;;;;;14.20;4.13;;;18.90;73.60;;;;;;5093124;28;20039;-78
2021/08/26 07:44:37;;;;;;;15.27;6.50;;;19.40;73.50;;;;;;5108917;28;20036;-77
2021/08/26 07:47:02;;;;;;;16.88;7.53;;;20.60;72.20;;;;;;5088648;28;20173;-76
2021/08/26 07:49:28;;;;;;;11.93;5.30;;;22.10;68.30;;;;;;5073347;28;20365;-77
2021/08/26 07:51:54;;;;;;;12.25;5.20;;;23.40;64.40;;;;;;5072426;28;20461;-79
2021/08/26 07:54:19;;;;;;;10.85;4.35;;;24.60;60.80;;;;;;5092251;28;20038;-78
2021/08/26 07:56:45;;;;;;;8.13;3.22;;;25.00;57.40;;;;;;5109719;28;20503;-76
2021/08/26 07:59:11;;;;;;;14.77;5.15;;;25.00;56.30;;;;;;5091521;28;20464;-77
2021/08/26 08:01:36;;;;;;;13.80;3.83;;;24.50;55.30;;;;;;5107306;28;20036;-77
2021/08/26 08:04:02;;;;;;;7.82;2.15;;;23.80;56.40;;;;;;5092098;28;20039;-79
2021/08/26 08:06:27;;;;;;;14.23;3.13;;;23.30;57.70;;;;;;5090745;28;20483;-75
2021/08/26 08:08:53;;;;;;;10.65;2.85;;;22.60;58.70;;;;;;5109454;28;20031;-77
2021/08/26 08:11:19;;;;;;;11.68;3.15;;;22.10;59.90;;;;;;5108912;28;20043;-76
2021/08/26 08:13:44;;;;;;;10.52;2.63;;;21.80;60.40;;;;;;5110391;28;20360;-77
2021/08/26 08:16:11;;;;;;;14.02;3.10;;;21.40;60.90;;;;;;5108681;28;20434;-76
2021/08/26 08:18:37;;;;;;;9.38;2.90;;;21.10;61.90;;;;;;5092766;28;20062;-76
2021/08/26 08:21:03;;;;;;;10.80;2.85;;;20.70;62.60;;;;;;5110761;28;20043;-77
2021/08/26 08:23:30;;;;;;;11.55;3.10;;;20.60;63.20;;;;;;5093887;28;20506;-77
2021/08/26 08:25:55;;;;;;;9.75;2.63;;;20.30;63.40;;;;;;5109893;28;20065;-78
2021/08/26 08:28:21;;;;;;;12.35;3.78;;;20.10;64.10;;;;;;5099366;28;20032;-78
2021/08/26 08:30:47;;;;;;;11.15;3.30;;;20.00;64.50;;;;;;5092377;28;20038;-78
2021/08/26 08:33:14;;;;;;;12.15;2.92;;;20.10;64.60;;;;;;5089671;28;20044;-79
2021/08/26 08:35:40;;;;;;;10.35;2.22;;;20.10;64.60;;;;;;5073612;28;20024;-76
2021/08/26 08:38:06;;;;;;;8.70;2.03;;;20.20;64.50;;;;;;5089860;28;20043;-77
2021/08/26 08:40:32;;;;;;;7.93;2.28;;;20.40;64.20;;;;;;5091844;28;20032;-75
2021/08/26 08:42:59;;;;;;;11.73;2.33;;;20.70;63.90;;;;;;5090001;28;20028;-76
2021/08/26 08:45:25;;;;;;;6.85;2.15;;;20.80;63.50;;;;;;5090595;28;20036;-76
2021/08/26 08:47:52;;;;;;;8.07;1.90;;;20.90;63.20;;;;;;5062113;28;20027;-77
2021/08/26 08:50:23;;;;;;;7.40;1.33;;;21.00;63.00;;;;;;5111068;28;20127;-77
2021/08/26 08:52:49;;;;;;;6.63;0.98;;;21.10;62.50;;;;;;5111644;28;20019;-77
2021/08/26 08:55:17;;;;;;;5.15;1.00;;;21.20;61.90;;;;;;5092463;28;20032;-78
2021/08/26 08:57:43;;;;;;;6.05;1.50;;;21.20;62.30;;;;;;5092906;28;20145;-78
2021/08/26 09:00:14;;;;;;;9.57;1.98;;;21.20;62.20;;;;;;5114709;28;20024;-78
2021/08/26 09:02:40;;;;;;;8.00;1.77;;;21.20;62.50;;;;;;5114229;28;20019;-76
2021/08/26 09:05:06;;;;;;;11.13;1.40;;;21.00;62.60;;;;;;5113101;28;20024;-81
2021/08/26 09:07:34;;;;;;;8.82;1.80;;;20.80;63.10;;;;;;5113650;28;20040;-77
2021/08/26 09:10:00;;;;;;;8.05;1.90;;;20.40;64.30;;;;;;5113233;28;20015;-77
2021/08/26 09:12:44;;;;;;;5.47;1.50;;;20.20;65.90;;;;;;5103155;28;20127;-78
2021/08/26 09:15:17;;;;;;;6.32;1.13;;;19.90;67.60;;;;;;5112067;28;20048;-76
2021/08/26 09:17:45;;;;;;;11.43;1.17;;;19.80;68.90;;;;;;5113328;28;20035;-76
2021/08/26 09:20:18;;;;;;;8.55;2.05;;;20.00;69.20;;;;;;5112020;28;20467;-77
2021/08/26 09:22:44;;;;;;;6.60;1.45;;;20.10;68.80;;;;;;5114038;28;20118;-77
2021/08/26 09:25:15;;;;;;;11.10;2.00;;;20.20;68.60;;;;;;5113013;28;20027;-77
2021/08/26 09:27:44;;;;;;;7.47;1.85;;;20.40;68.60;;;;;;5113236;28;20114;-76
2021/08/26 09:30:19;;;;;;;9.10;2.50;;;20.60;68.10;;;;;;5113376;28;20463;-78
2021/08/26 09:32:44;;;;;;;9.13;3.08;;;20.50;67.40;;;;;;5112545;28;20031;-77
2021/08/26 09:35:22;;;;;;;9.63;3.35;;;20.40;67.30;;;;;;5111742;28;20038;-76
2021/08/26 09:37:54;;;;;;;12.23;3.05;;;20.40;67.40;;;;;;5112419;28;20172;-76
2021/08/26 09:40:24;;;;;;;8.13;2.10;;;20.40;67.60;;;;;;5110714;28;20038;-75
2021/08/26 09:43:02;;;;;;;8.68;2.40;;;20.40;67.50;;;;;;5112317;28;20027;-77
2021/08/26 09:45:34;;;;;;;8.43;2.30;;;20.30;67.90;;;;;;5108535;28;20204;-76
2021/08/26 09:48:08;;;;;;;10.15;3.20;;;20.40;68.00;;;;;;5106365;28;20122;-75
2021/08/26 09:50:54;;;;;;;7.35;2.78;;;20.50;67.90;;;;;;5113921;28;20031;-80
2021/08/26 09:53:22;;;;;;;6.90;1.45;;;20.90;67.20;;;;;;5113161;28;20111;-76
2021/08/26 09:55:50;;;;;;;4.45;0.88;;;21.40;66.00;;;;;;5113741;28;20050;-76
2021/08/26 09:58:17;;;;;;;5.72;1.05;;;21.80;65.10;;;;;;5112237;28;20107;-77
2021/08/26 10:00:44;;;;;;;5.93;0.90;;;22.00;64.20;;;;;;5088571;28;20426;-78
2021/08/26 10:03:12;;;;;;;5.00;1.15;;;22.20;63.50;;;;;;5109890;28;20030;-80
2021/08/26 10:05:43;;;;;;;8.55;1.27;;;22.60;62.90;;;;;;5111318;28;20035;-77
2021/08/26 10:08:10;;;;;;;6.57;1.02;;;23.20;61.60;;;;;;5114707;28;20023;-80
2021/08/26 10:10:39;;;;;;;5.43;1.08;;;23.50;60.10;;;;;;5107418;28;20103;-76
2021/08/26 10:13:06;;;;;;;7.18;1.38;;;23.60;59.80;;;;;;5109608;28;20737;-76
2021/08/26 10:15:32;;;;;;;6.63;1.20;;;23.80;59.10;;;;;;5074712;28;20044;-77
2021/08/26 10:17:58;;;;;;;9.30;1.65;;;23.80;58.60;;;;;;5104610;28;20030;-75
2021/08/26 10:20:24;;;;;;;8.65;1.85;;;23.70;58.50;;;;;;5111427;28;20028;-78
2021/08/26 10:22:52;;;;;;;5.97;1.63;;;23.60;59.20;;;;;;5078367;28;20034;-77
2021/08/26 10:25:18;;;;;;;9.57;1.92;;;23.30;59.80;;;;;;5110267;28;20023;-78
2021/08/26 10:27:46;;;;;;;5.65;1.33;;;23.30;60.00;;;;;;5112838;28;20035;-76
2021/08/26 10:30:31;;;;;;;6.80;1.80;;;23.10;60.10;;;;;;5090056;28;20027;-79
2021/08/26 10:33:27;;;;;;;6.72;1.50;;;22.80;60.10;;;;;;5104400;28;20130;-79
2021/08/26 10:35:59;;;;;;;7.45;1.90;;;22.10;61.80;;;;;;5106258;28;20047;-78
2021/08/26 10:38:31;;;;;;;5.40;1.42;;;21.50;64.60;;;;;;5095606;28;20092;-78
2021/08/26 10:41:28;;;;;;;7.25;1.38;;;20.90;66.10;;;;;;5097224;28;20071;-77
2021/08/26 10:43:58;;;;;;;3.90;1.02;;;20.60;67.90;;;;;;5079635;28;20044;-75
2021/08/26 10:46:48;;;;;;;6.00;1.05;;;20.40;68.70;;;;;;5110885;28;20059;-78
2021/08/26 10:49:15;;;;;;;5.75;2.25;;;20.40;68.50;;;;;;5107841;28;20039;-81
2021/08/26 10:51:46;;;;;;;8.68;2.22;;;20.50;68.80;;;;;;5100040;28;20035;-78
2021/08/26 10:54:31;;;;;;;5.50;1.73;;;20.60;68.50;;;;;;5103627;28;20479;-80
2021/08/26 10:57:18;;;;;;;4.78;1.33;;;20.70;68.10;;;;;;5102606;28;20028;-77
2021/08/26 10:59:43;;;;;;;6.65;2.10;;;20.70;67.40;;;;;;5105776;28;20063;-77
2021/08/26 11:02:41;;;;;;;3.88;1.30;;;20.80;67.60;;;;;;5077623;28;20066;-78
2021/08/26 11:05:40;;;;;;;4.45;1.40;;;21.00;67.10;;;;;;5104220;28;20032;-76
2021/08/26 11:08:31;;;;;;;5.05;1.80;;;21.30;66.90;;;;;;5054046;28;20069;-76
2021/08/26 11:11:18;;;;;;;6.07;1.58;;;21.20;68.00;;;;;;5107034;28;20445;-77
2021/08/26 11:13:44;;;;;;;2.85;1.00;;;21.20;68.70;;;;;;5094432;28;20036;-78
2021/08/26 11:16:25;;;;;;;3.38;0.85;;;21.30;68.80;;;;;;5101436;28;20479;-77
2021/08/26 11:18:51;;;;;;;3.33;0.90;;;21.50;68.80;;;;;;5104160;28;20504;-77
2021/08/26 11:21:48;;;;;;;4.00;0.95;;;21.90;68.50;;;;;;5104967;28;20031;-76
2021/08/26 11:24:19;;;;;;;2.88;0.70;;;22.40;67.60;;;;;;5101341;28;20518;-77
2021/08/26 11:26:48;;;;;;;3.83;0.75;;;22.70;65.90;;;;;;5104266;28;20024;-77
2021/08/26 11:29:20;;;;;;;3.70;0.70;;;23.10;65.00;;;;;;5086480;28;20055;-77
2021/08/26 11:31:55;;;;;;;2.08;0.57;;;23.40;63.40;;;;;;5103350;28;20019;-77
2021/08/26 11:34:39;;;;;;;4.03;0.82;;;23.60;62.60;;;;;;5104863;28;20070;-81
2021/08/26 11:37:32;;;;;;;4.18;0.80;;;23.80;61.80;;;;;;5102932;28;20104;-77
2021/08/26 11:39:58;;;;;;;;;;;24.00;60.70;;;;;;5102938;28;20039;-76
2021/08/26 11:42:33;;;;;;;3.80;0.90;;;24.00;60.70;;;;;;5106845;28;19907;-81
2021/08/26 11:45:15;;;;;;;3.65;0.90;;;24.00;60.00;;;;;;5107724;28;20484;-77
2021/08/26 11:47:44;;;;;;;3.53;0.60;;;24.10;59.80;;;;;;5111075;28;20028;-76
2021/08/26 11:50:28;;;;;;;4.13;0.98;;;24.20;59.40;;;;;;5109266;28;20115;-77
2021/08/26 11:53:01;;;;;;;3.20;0.80;;;24.10;59.30;;;;;;5099555;28;20027;-75
2021/08/26 11:55:29;;;;;;;6.75;1.40;;;24.20;59.50;;;;;;5104422;28;20035;-83
2021/08/26 11:58:02;;;;;;;2.55;0.90;;;24.20;59.40;;;;;;5111102;28;20031;-77
2021/08/26 12:00:28;;;;;;;3.30;0.80;;;24.20;59.20;;;;;;5100937;28;20074;-81
2021/08/26 12:02:55;;;;;;;4.82;0.70;;;24.10;58.60;;;;;;5097931;28;20055;-75
2021/08/26 12:05:22;;;;;;;6.63;0.90;;;24.10;58.50;;;;;;5110018;28;20666;-76
2021/08/26 12:07:50;;;;;;;3.78;0.90;;;24.00;58.90;;;;;;5109023;28;20583;-77
2021/08/26 12:10:39;;;;;;;3.70;0.80;;;24.00;59.00;;;;;;5074091;28;20047;-76
2021/08/26 12:13:07;;;;;;;4.82;0.85;;;23.70;59.40;;;;;;5099358;28;20364;-77
2021/08/26 12:15:34;;;;;;;3.45;0.90;;;23.60;59.20;;;;;;5101123;28;20050;-78
2021/08/26 12:18:11;;;;;;;3.90;1.00;;;23.50;58.90;;;;;;5102024;28;20395;-77
2021/08/26 12:20:51;;;;;;;4.38;0.77;;;23.60;58.60;;;;;;5096043;28;20028;-78
2021/08/26 12:23:29;;;;;;;4.40;0.77;;;23.60;58.40;;;;;;5099142;28;20101;-78
2021/08/26 12:26:04;;;;;;;4.38;0.88;;;23.70;58.00;;;;;;5112720;28;20100;-77
2021/08/26 12:28:35;;;;;;;3.22;0.60;;;23.90;57.70;;;;;;5106933;28;20071;-80
2021/08/26 12:31:05;;;;;;;3.97;0.77;;;24.00;57.50;;;;;;5106023;28;20083;-77
2021/08/26 12:33:32;;;;;;;3.72;1.00;;;23.90;57.80;;;;;;5115003;28;20018;-79
2021/08/26 12:35:58;;;;;;;4.10;0.80;;;23.80;58.10;;;;;;5134204;27;20035;-76
2021/08/26 12:38:37;;;;;;;3.65;0.73;;;23.70;58.10;;;;;;5110313;28;20047;-77
2021/08/26 12:41:14;;;;;;;3.10;0.75;;;23.50;58.60;;;;;;5107859;28;20039;-76
2021/08/26 12:43:59;;;;;;;3.92;1.00;;;23.40;58.80;;;;;;5108742;28;20028;-76
2021/08/26 12:46:26;;;;;;;5.18;1.15;;;23.20;59.80;;;;;;5090710;28;20039;-78
2021/08/26 12:49:14;;;;;;;4.55;1.10;;;22.90;60.50;;;;;;5109233;28;20023;-80
2021/08/26 12:51:53;;;;;;;6.78;1.30;;;22.50;61.20;;;;;;5113815;28;20103;-76
2021/08/26 12:54:20;;;;;;;4.68;1.63;;;22.10;62.10;;;;;;5104455;28;20023;-77
2021/08/26 12:56:57;;;;;;;8.65;2.70;;;21.80;62.80;;;;;;5090344;28;20019;-75